Time;durP1;ratioP1;P1;durP2;ratioP2;P2;SDS_P1;SDS_P2;PMS_P1;PMS_P2;Temp;Humidity;BMP_temperature;BMP_pressure;BME280_temperature;BME280_humidity;BME280_pressure;Samples;Min_cycle;Max_cycle;Signal;HPM_P1;HPM_P2
2021/12/18 00:01:31;;;;;;;14.57;12.00;;;3.00;99.90;;;;;;5031597;28;20181;-73
2021/12/18 00:03:58;;;;;;;15.37;11.33;;;3.00;99.90;;;;;;5030958;28;20640;-73
2021/12/18 00:06:27;;;;;;;15.37;12.27;;;3.00;99.90;;;;;;5032126;28;20176;-73
2021/12/18 00:08:53;;;;;;;13.07;11.50;;;3.10;99.90;;;;;;5032619;28;20189;-73
2021/12/18 00:11:19;;;;;;;16.53;12.57;;;3.10;99.90;;;;;;5027052;28;20276;-73
2021/12/18 00:13:44;;;;;;;15.87;11.97;;;3.10;99.90;;;;;;5012788;28;20288;-73
2021/12/18 00:16:10;;;;;;;14.87;11.70;;;3.10;99.90;;;;;;5013598;28;20181;-73
2021/12/18 00:18:35;;;;;;;15.20;12.07;;;3.10;99.90;;;;;;5032721;28;20402;-73
2021/12/18 00:21:03;;;;;;;17.80;12.27;;;3.10;99.90;;;;;;5031290;28;20262;-73
2021/12/18 00:23:29;;;;;;;15.93;11.77;;;3.10;99.90;;;;;;5032308;28;20183;-73
2021/12/18 00:25:54;;;;;;;13.60;11.10;;;3.10;99.90;;;;;;5031841;28;20278;-73
2021/12/18 00:28:21;;;;;;;16.57;13.00;;;3.20;99.90;;;;;;5019445;28;20647;-73
2021/12/18 00:30:47;;;;;;;15.90;12.20;;;3.30;99.90;;;;;;5023409;28;20178;-73
2021/12/18 00:33:12;;;;;;;18.77;13.37;;;3.30;99.90;;;;;;5015282;28;20186;-73
2021/12/18 00:35:38;;;;;;;17.30;12.80;;;3.40;99.90;;;;;;5030834;28;20543;-73
2021/12/18 00:38:05;;;;;;;15.50;11.93;;;3.40;99.90;;;;;;5012366;28;20168;-73
2021/12/18 00:40:44;;;;;;;12.83;10.97;;;3.50;99.90;;;;;;5013111;28;20174;-73
2021/12/18 00:43:31;;;;;;;16.87;12.37;;;3.50;99.90;;;;;;5030922;28;20203;-73
2021/12/18 00:45:56;;;;;;;15.60;12.10;;;3.40;99.90;;;;;;5010894;28;20684;-72
2021/12/18 00:48:22;;;;;;;14.23;11.47;;;3.30;99.90;;;;;;5012125;28;20189;-73
2021/12/18 00:50:48;;;;;;;15.45;11.70;;;3.40;99.90;;;;;;5041095;28;20176;-73
2021/12/18 00:53:14;;;;;;;14.60;11.63;;;3.30;99.90;;;;;;5043226;28;20180;-73
2021/12/18 00:55:40;;;;;;;14.60;11.90;;;3.20;99.90;;;;;;5031722;28;20211;-74
2021/12/18 00:58:06;;;;;;;14.83;11.20;;;3.20;99.90;;;;;;5030392;28;20606;-74
2021/12/18 01:00:33;;;;;;;13.53;11.33;;;3.30;99.90;;;;;;5031818;28;20199;-74
2021/12/18 01:03:01;;;;;;;16.30;12.40;;;3.20;99.90;;;;;;5025685;28;20184;-73
2021/12/18 01:05:29;;;;;;;15.37;11.97;;;3.20;99.90;;;;;;5019489;28;20593;-74
2021/12/18 01:07:57;;;;;;;14.33;11.70;;;3.30;99.90;;;;;;5031942;28;20165;-73
2021/12/18 01:10:50;;;;;;;15.57;11.33;;;3.20;99.90;;;;;;5027040;28;20170;-73
2021/12/18 01:13:21;;;;;;;15.53;10.70;;;3.30;99.90;;;;;;5010967;28;20177;-73
2021/12/18 01:15:51;;;;;;;14.23;11.32;;;3.40;99.90;;;;;;5011905;28;20226;-73
2021/12/18 01:23:46;;;;;;;16.30;12.33;;;3.50;99.90;;;;;;5012203;28;20212;-73
2021/12/18 01:26:13;;;;;;;15.47;11.67;;;3.50;99.90;;;;;;5011707;28;20232;-73
2021/12/18 01:28:39;;;;;;;17.43;12.20;;;3.40;99.90;;;;;;5011960;28;20197;-73
2021/12/18 01:31:05;;;;;;;14.70;12.27;;;3.30;99.90;;;;;;5027900;28;20173;-73
2021/12/18 01:33:32;;;;;;;18.27;12.57;;;3.40;99.90;;;;;;5031719;28;20168;-73
2021/12/18 01:36:00;;;;;;;17.17;12.10;;;3.30;99.90;;;;;;5031343;28;20290;-73
2021/12/18 01:38:28;;;;;;;16.52;11.48;;;3.30;99.90;;;;;;5015744;28;20212;-73
2021/12/18 01:40:54;;;;;;;15.53;11.73;;;3.40;99.90;;;;;;5028198;28;20576;-72
2021/12/18 01:51:33;;;;;;;17.40;13.03;;;3.40;99.90;;;;;;5049561;28;20180;-73
2021/12/18 01:54:00;;;;;;;16.03;11.97;;;3.30;99.90;;;;;;5041714;28;20173;-73
2021/12/18 01:56:27;;;;;;;16.40;12.20;;;3.30;99.90;;;;;;5033387;28;20173;-73
2021/12/18 01:58:54;;;;;;;15.80;12.17;;;3.30;99.90;;;;;;5034959;28;20207;-71
2021/12/18 02:01:20;;;;;;;15.67;11.77;;;3.40;99.90;;;;;;5035117;28;20588;-73
2021/12/18 02:03:47;;;;;;;15.63;11.70;;;3.40;99.90;;;;;;5033374;28;20238;-73
2021/12/18 02:06:13;;;;;;;14.80;11.73;;;3.40;99.90;;;;;;5034589;28;20255;-71
2021/12/18 02:08:39;;;;;;;18.37;12.67;;;3.50;99.90;;;;;;5034606;28;20207;-73
2021/12/18 02:11:27;;;;;;;16.67;11.97;;;3.50;99.90;;;;;;5032522;28;20177;-73
2021/12/18 02:22:08;;;;;;;16.93;11.80;;;3.50;99.90;;;;;;5014921;28;20248;-72
2021/12/18 02:24:34;;;;;;;13.57;11.50;;;3.50;99.90;;;;;;5014359;28;20200;-73
2021/12/18 02:27:00;;;;;;;18.83;12.43;;;3.40;99.90;;;;;;5032036;28;20176;-73
2021/12/18 02:29:29;;;;;;;14.67;11.47;;;3.30;99.90;;;;;;5034618;28;20287;-73
2021/12/18 02:31:55;;;;;;;13.07;10.07;;;3.40;99.90;;;;;;5022662;28;20188;-73
2021/12/18 02:34:27;;;;;;;13.50;10.33;;;3.50;99.90;;;;;;5034141;28;20550;-73
2021/12/18 02:36:58;;;;;;;12.53;9.67;;;3.50;99.90;;;;;;5021763;28;20644;-73
2021/12/18 02:39:41;;;;;;;13.67;10.97;;;3.60;99.90;;;;;;5015125;28;20585;-73
2021/12/18 02:42:09;;;;;;;14.43;11.27;;;3.50;99.90;;;;;;5032910;28;20180;-73
2021/12/18 02:44:36;;;;;;;15.37;11.50;;;3.40;99.90;;;;;;5032646;28;20204;-73
2021/12/18 02:47:03;;;;;;;14.90;11.33;;;3.30;99.90;;;;;;5019822;28;20177;-73
2021/12/18 02:49:28;;;;;;;14.30;10.60;;;3.30;99.90;;;;;;5037315;28;20262;-73
2021/12/18 02:51:54;;;;;;;15.33;12.03;;;3.30;99.90;;;;;;5053962;28;20593;-72
2021/12/18 02:54:20;;;;;;;14.33;11.30;;;3.30;99.90;;;;;;5042801;28;20219;-73
2021/12/18 02:56:45;;;;;;;15.93;12.67;;;3.30;99.90;;;;;;5049411;28;20204;-73
2021/12/18 02:59:11;;;;;;;14.10;11.80;;;3.30;99.90;;;;;;5033684;28;20212;-73
2021/12/18 03:01:40;;;;;;;13.30;10.63;;;3.30;99.90;;;;;;5033942;28;20195;-73
2021/12/18 03:04:25;;;;;;;15.60;11.73;;;3.30;99.90;;;;;;5032584;28;20556;-73
2021/12/18 03:06:55;;;;;;;14.70;12.13;;;3.30;99.90;;;;;;5032760;28;20169;-73
2021/12/18 03:25:38;;;;;;;15.87;10.90;;;3.50;99.90;;;;;;5028747;28;20572;-73
2021/12/18 03:28:05;;;;;;;13.97;11.60;;;3.40;99.90;;;;;;5032082;28;20196;-73
2021/12/18 03:30:32;;;;;;;16.20;11.95;;;3.50;99.90;;;;;;5025216;28;20173;-72
2021/12/18 03:32:58;;;;;;;13.70;11.40;;;3.50;99.90;;;;;;5013536;28;20169;-73
2021/12/18 03:35:25;;;;;;;14.50;11.43;;;3.50;99.90;;;;;;5020601;28;20187;-73
2021/12/18 03:37:52;;;;;;;14.23;11.35;;;3.40;99.90;;;;;;5032019;28;20173;-73
2021/12/18 03:40:21;;;;;;;14.93;12.00;;;3.40;99.90;;;;;;5024662;28;20263;-72
2021/12/18 03:42:47;;;;;;;13.63;11.03;;;3.40;99.90;;;;;;5033366;28;20562;-73
2021/12/18 03:45:14;;;;;;;14.10;11.47;;;3.60;99.90;;;;;;5032968;28;20257;-73
2021/12/18 03:47:40;;;;;;;15.93;12.10;;;3.50;99.90;;;;;;5031875;28;20176;-73
2021/12/18 03:50:06;;;;;;;16.13;11.67;;;3.40;99.90;;;;;;5034431;28;20284;-73
2021/12/18 03:52:32;;;;;;;16.43;11.67;;;3.40;99.90;;;;;;5052694;28;20168;-73
2021/12/18 03:54:59;;;;;;;12.87;11.07;;;3.50;99.90;;;;;;5038506;28;20546;-73
2021/12/18 03:57:25;;;;;;;13.67;12.23;;;3.40;99.90;;;;;;5031572;28;20180;-73
2021/12/18 03:59:51;;;;;;;15.10;12.20;;;3.40;99.90;;;;;;5031864;28;20212;-73
2021/12/18 04:02:20;;;;;;;17.25;11.65;;;3.30;99.90;;;;;;5030928;28;20231;-73
2021/12/18 04:04:45;;;;;;;15.00;11.93;;;3.30;99.90;;;;;;5024818;28;20243;-73
2021/12/18 04:07:11;;;;;;;14.60;11.48;;;3.30;99.90;;;;;;5032738;28;20204;-72
2021/12/18 04:09:37;;;;;;;15.03;11.57;;;3.30;99.90;;;;;;5032468;28;20189;-73
2021/12/18 04:12:03;;;;;;;15.63;12.13;;;3.30;99.90;;;;;;5031490;28;20187;-73
2021/12/18 04:14:29;;;;;;;14.30;11.07;;;3.40;99.90;;;;;;5031008;28;20653;-73
2021/12/18 04:16:56;;;;;;;16.47;11.03;;;3.40;99.90;;;;;;5032418;28;20176;-73
2021/12/18 04:19:21;;;;;;;20.03;12.73;;;3.30;99.90;;;;;;5032243;28;20203;-72
2021/12/18 04:21:47;;;;;;;14.80;11.90;;;3.30;99.90;;;;;;5032493;28;20173;-73
2021/12/18 04:24:13;;;;;;;13.55;11.27;;;3.30;99.90;;;;;;5015805;28;20189;-73
2021/12/18 04:26:39;;;;;;;14.40;11.80;;;3.40;99.90;;;;;;5012757;28;20680;-72
2021/12/18 04:29:08;;;;;;;15.17;11.93;;;3.50;99.90;;;;;;5012510;28;20324;-73
2021/12/18 04:31:36;;;;;;;13.03;10.93;;;3.40;99.90;;;;;;5027743;28;20177;-72
2021/12/18 04:34:02;;;;;;;16.97;11.73;;;3.40;99.90;;;;;;5012241;28;20191;-73
2021/12/18 04:36:28;;;;;;;13.80;10.07;;;3.40;99.90;;;;;;5014759;28;20181;-73
2021/12/18 04:38:54;;;;;;;14.70;11.13;;;3.40;99.90;;;;;;5012518;28;20211;-73
2021/12/18 04:41:23;;;;;;;14.03;11.30;;;3.50;99.90;;;;;;5025680;28;20861;-72
2021/12/18 04:43:50;;;;;;;15.97;12.20;;;3.50;99.90;;;;;;5012435;28;20173;-72
2021/12/18 04:46:15;;;;;;;16.77;12.32;;;3.40;99.90;;;;;;5012038;28;20201;-72
2021/12/18 04:48:41;;;;;;;14.67;11.17;;;3.30;99.90;;;;;;5030820;28;20207;-72
2021/12/18 04:51:07;;;;;;;16.10;11.37;;;3.30;99.90;;;;;;5033612;28;20180;-73
2021/12/18 04:53:32;;;;;;;17.43;11.77;;;3.30;99.90;;;;;;5018401;28;20189;-73
2021/12/18 04:55:58;;;;;;;16.10;12.33;;;3.40;99.90;;;;;;5010592;28;20177;-73
2021/12/18 04:58:23;;;;;;;14.03;10.70;;;3.30;99.90;;;;;;5014255;28;20192;-73
2021/12/18 05:00:50;;;;;;;14.70;11.37;;;3.40;99.90;;;;;;5031741;28;20211;-73
2021/12/18 05:03:17;;;;;;;14.93;12.13;;;3.50;99.90;;;;;;5030598;28;20192;-72
2021/12/18 05:05:43;;;;;;;13.03;10.73;;;3.50;99.90;;;;;;5031585;28;20258;-71
2021/12/18 05:08:09;;;;;;;15.23;11.75;;;3.50;99.90;;;;;;5031708;28;20172;-70
2021/12/18 05:10:35;;;;;;;14.37;11.50;;;3.40;99.90;;;;;;5025892;28;20180;-73
2021/12/18 05:13:01;;;;;;;13.67;11.07;;;3.50;99.90;;;;;;5034252;28;20180;-73
2021/12/18 05:15:27;;;;;;;15.60;11.05;;;3.40;99.90;;;;;;5035518;28;20469;-73
2021/12/18 05:17:52;;;;;;;15.47;12.00;;;3.50;99.90;;;;;;5035823;28;20176;-73
2021/12/18 05:20:18;;;;;;;15.85;11.57;;;3.60;99.90;;;;;;5034546;28;20340;-73
2021/12/18 05:22:43;;;;;;;13.13;10.40;;;3.60;99.90;;;;;;5035418;28;20177;-72
2021/12/18 05:25:09;;;;;;;16.20;11.87;;;3.60;99.90;;;;;;5035336;28;20258;-73
2021/12/18 05:27:36;;;;;;;15.77;12.30;;;3.60;99.90;;;;;;5034361;28;20169;-73
2021/12/18 05:30:07;;;;;;;16.43;11.63;;;3.60;99.90;;;;;;5035382;28;20180;-72
2021/12/18 05:32:33;;;;;;;17.63;11.93;;;3.60;99.90;;;;;;5035369;28;20709;-73
2021/12/18 05:34:58;;;;;;;13.93;11.37;;;3.70;99.90;;;;;;5035301;28;20181;-72
2021/12/18 05:40:09;;;;;;;14.67;12.17;;;3.60;99.90;;;;;;5035749;28;20265;-72
2021/12/18 05:42:34;;;;;;;15.93;12.25;;;3.50;99.90;;;;;;5035196;28;20215;-73
2021/12/18 05:45:00;;;;;;;17.17;13.37;;;3.50;99.90;;;;;;5035072;28;20223;-73
2021/12/18 05:47:26;;;;;;;15.90;12.30;;;3.50;99.90;;;;;;5034362;28;20845;-73
2021/12/18 05:49:51;;;;;;;17.67;12.32;;;3.60;99.90;;;;;;5041993;28;20227;-73
2021/12/18 05:52:17;;;;;;;18.15;13.05;;;3.60;99.90;;;;;;5053753;28;20262;-73
2021/12/18 05:54:42;;;;;;;17.00;12.77;;;3.70;99.90;;;;;;5034737;28;20649;-72
2021/12/18 05:57:14;;;;;;;19.80;13.93;;;3.60;99.90;;;;;;5035125;28;20173;-73
2021/12/18 05:59:40;;;;;;;17.10;12.37;;;3.50;99.90;;;;;;5034879;28;20251;-73
2021/12/18 06:02:06;;;;;;;19.80;13.47;;;3.50;99.90;;;;;;5028700;28;20224;-73
2021/12/18 06:04:31;;;;;;;16.70;12.70;;;3.60;99.90;;;;;;5014935;28;20322;-72
2021/12/18 06:07:04;;;;;;;16.67;12.93;;;3.60;99.90;;;;;;5034945;28;20592;-72
2021/12/18 06:09:31;;;;;;;17.67;13.13;;;3.50;99.90;;;;;;5034862;28;20203;-73
2021/12/18 06:11:58;;;;;;;16.50;11.93;;;3.50;99.90;;;;;;5033759;28;20218;-73
2021/12/18 06:14:24;;;;;;;15.77;13.00;;;3.50;99.90;;;;;;5032208;28;20191;-73
2021/12/18 06:16:49;;;;;;;19.30;14.13;;;3.60;99.90;;;;;;5034631;28;20177;-73
2021/12/18 06:19:15;;;;;;;18.97;13.40;;;3.50;99.90;;;;;;5026685;28;20205;-72
2021/12/18 06:21:41;;;;;;;18.70;13.87;;;3.50;99.90;;;;;;5014916;28;20660;-73
2021/12/18 06:24:08;;;;;;;16.27;12.63;;;3.50;99.90;;;;;;5045967;28;20242;-71
2021/12/18 06:26:34;;;;;;;17.07;13.67;;;3.40;99.90;;;;;;5029714;28;20192;-73
2021/12/18 06:28:59;;;;;;;19.30;13.97;;;3.30;99.90;;;;;;5030889;28;20216;-71
2021/12/18 06:31:25;;;;;;;16.47;13.00;;;3.20;99.90;;;;;;5028603;28;20224;-72
2021/12/18 06:33:51;;;;;;;19.00;13.33;;;3.30;99.90;;;;;;5032554;28;20567;-73
2021/12/18 06:36:17;;;;;;;21.53;13.70;;;3.40;99.90;;;;;;5034105;28;20183;-73
2021/12/18 06:38:42;;;;;;;20.73;14.73;;;3.50;99.90;;;;;;5016465;28;20567;-72
2021/12/18 06:41:08;;;;;;;22.40;14.53;;;3.60;99.90;;;;;;5017644;28;20219;-72
2021/12/18 06:43:34;;;;;;;19.13;13.70;;;3.50;99.90;;;;;;5033972;28;20169;-72
2021/12/18 06:46:00;;;;;;;19.43;14.67;;;3.40;99.90;;;;;;5032595;28;20248;-72
2021/12/18 06:48:25;;;;;;;19.47;14.57;;;3.30;99.90;;;;;;5034143;28;20671;-72
2021/12/18 06:50:51;;;;;;;18.23;13.87;;;3.40;99.90;;;;;;5033911;28;20636;-72
2021/12/18 06:53:17;;;;;;;18.53;13.67;;;3.50;99.90;;;;;;5032191;28;20663;-72
2021/12/18 06:55:43;;;;;;;17.87;13.27;;;3.40;99.90;;;;;;5033723;28;20188;-73
2021/12/18 06:58:08;;;;;;;22.27;14.83;;;3.30;99.90;;;;;;5033692;28;20180;-72
2021/12/18 07:00:35;;;;;;;18.88;13.68;;;3.40;99.90;;;;;;5032934;28;20194;-73
2021/12/18 07:03:00;;;;;;;17.33;13.33;;;3.40;99.90;;;;;;5032633;28;20227;-72
2021/12/18 07:05:26;;;;;;;16.93;12.93;;;3.40;99.90;;;;;;5032948;28;20224;-72
2021/12/18 07:07:51;;;;;;;19.67;13.40;;;3.40;99.90;;;;;;5033163;28;20176;-72
2021/12/18 07:10:18;;;;;;;17.90;13.03;;;3.50;99.90;;;;;;5033580;28;20188;-72
2021/12/18 07:12:44;;;;;;;18.87;13.47;;;3.60;99.90;;;;;;5032274;28;20188;-72
2021/12/18 07:15:11;;;;;;;18.03;13.50;;;3.60;99.90;;;;;;5033005;28;20542;-72
2021/12/18 07:17:37;;;;;;;16.33;12.30;;;3.70;99.90;;;;;;5032928;28;20168;-72
2021/12/18 07:20:05;;;;;;;15.13;11.43;;;3.80;99.90;;;;;;5031276;28;20207;-72
2021/12/18 07:22:30;;;;;;;18.57;12.67;;;3.90;99.90;;;;;;5032625;28;20177;-72
2021/12/18 07:24:56;;;;;;;15.00;11.97;;;3.90;99.90;;;;;;5032810;28;20738;-73
2021/12/18 07:27:22;;;;;;;15.27;11.55;;;4.00;99.90;;;;;;5033307;28;20209;-73
2021/12/18 07:29:47;;;;;;;15.75;12.10;;;4.00;99.90;;;;;;5032103;28;20196;-73
2021/12/18 07:32:13;;;;;;;15.63;11.23;;;4.00;99.90;;;;;;5033082;28;20188;-72
2021/12/18 07:34:39;;;;;;;14.70;11.83;;;4.00;99.90;;;;;;5031656;28;20192;-72
2021/12/18 07:37:04;;;;;;;15.05;10.85;;;4.00;99.90;;;;;;5032656;28;20212;-73
2021/12/18 07:39:30;;;;;;;17.33;11.33;;;4.00;99.90;;;;;;5032181;28;20203;-72
2021/12/18 07:41:56;;;;;;;13.93;11.20;;;4.10;99.90;;;;;;5013388;28;20700;-73
2021/12/18 07:44:21;;;;;;;15.07;11.33;;;4.00;99.90;;;;;;5013109;28;20180;-72
2021/12/18 07:46:47;;;;;;;18.95;11.95;;;4.00;99.90;;;;;;5013513;28;20228;-73
2021/12/18 07:49:13;;;;;;;16.67;13.17;;;4.10;99.90;;;;;;5050382;28;21111;-73
2021/12/18 07:51:39;;;;;;;16.45;12.13;;;4.10;99.90;;;;;;5053038;28;20168;-73
2021/12/18 07:54:06;;;;;;;17.23;13.55;;;4.10;99.90;;;;;;5048892;28;20607;-73
2021/12/18 07:56:33;;;;;;;17.60;13.03;;;4.00;99.90;;;;;;5032783;28;20194;-72
2021/12/18 07:58:58;;;;;;;18.00;13.00;;;3.80;99.90;;;;;;5031008;28;20234;-73
2021/12/18 08:01:24;;;;;;;20.87;13.97;;;3.90;99.90;;;;;;5032837;28;20184;-73
2021/12/18 08:03:50;;;;;;;19.58;13.82;;;3.90;99.90;;;;;;5031237;28;20314;-72
2021/12/18 08:06:16;;;;;;;18.10;13.45;;;3.90;99.90;;;;;;5031339;28;20204;-72
2021/12/18 08:08:42;;;;;;;18.00;14.50;;;3.90;99.90;;;;;;5028059;28;20204;-73
2021/12/18 08:11:08;;;;;;;18.13;13.55;;;3.90;99.90;;;;;;5029462;28;20176;-72
2021/12/18 08:13:34;;;;;;;18.02;13.75;;;3.90;99.90;;;;;;5031750;28;20259;-73
2021/12/18 08:15:59;;;;;;;18.88;13.38;;;4.10;99.90;;;;;;5030911;28;20673;-73
2021/12/18 08:18:25;;;;;;;20.05;14.35;;;4.30;99.90;;;;;;5032452;28;20184;-73
2021/12/18 08:20:51;;;;;;;18.77;13.77;;;4.30;99.90;;;;;;5032340;28;20173;-73
2021/12/18 08:23:17;;;;;;;20.92;14.20;;;4.20;99.90;;;;;;5032102;28;20184;-73
2021/12/18 08:25:43;;;;;;;19.58;15.10;;;4.10;99.90;;;;;;5026878;28;20204;-74
2021/12/18 08:28:09;;;;;;;18.83;13.88;;;4.20;99.90;;;;;;5032079;28;20231;-75
2021/12/18 08:30:38;;;;;;;21.30;14.85;;;4.10;99.90;;;;;;5032344;28;20654;-71
2021/12/18 08:33:05;;;;;;;21.27;14.82;;;4.30;99.90;;;;;;5032292;28;20287;-73
2021/12/18 08:35:32;;;;;;;22.02;15.30;;;4.40;99.90;;;;;;5026335;28;20607;-73
2021/12/18 08:37:59;;;;;;;18.60;14.32;;;4.50;99.90;;;;;;5031632;28;20169;-74
2021/12/18 08:40:26;;;;;;;20.30;14.48;;;4.60;99.90;;;;;;5031670;28;20184;-73
2021/12/18 08:42:52;;;;;;;18.80;14.88;;;4.80;99.90;;;;;;5014919;28;20230;-73
2021/12/18 08:45:19;;;;;;;20.60;15.07;;;5.00;99.90;;;;;;5012118;28;20200;-72
2021/12/18 08:47:45;;;;;;;21.73;15.02;;;5.10;99.90;;;;;;5027596;28;20298;-73
2021/12/18 08:50:15;;;;;;;21.23;15.27;;;5.20;99.90;;;;;;5030817;28;20293;-73
2021/12/18 08:52:42;;;;;;;19.13;14.43;;;5.30;99.90;;;;;;5028719;28;20181;-73
2021/12/18 08:55:08;;;;;;;23.10;15.65;;;5.30;99.90;;;;;;5029289;28;20651;-72
2021/12/18 08:57:34;;;;;;;20.95;15.27;;;5.30;99.90;;;;;;5029495;28;20185;-72
2021/12/18 08:59:59;;;;;;;20.35;14.68;;;5.10;99.90;;;;;;5026968;28;20569;-73
2021/12/18 09:02:25;;;;;;;20.20;15.52;;;5.10;99.90;;;;;;5029715;28;20175;-73
2021/12/18 09:04:51;;;;;;;20.05;14.98;;;5.10;99.90;;;;;;5030472;28;20810;-73
2021/12/18 09:07:17;;;;;;;21.02;15.20;;;5.10;99.90;;;;;;5030370;28;20610;-73
2021/12/18 09:09:43;;;;;;;20.27;15.88;;;5.10;99.90;;;;;;5031647;28;20676;-73
2021/12/18 09:12:10;;;;;;;20.67;15.05;;;5.20;99.90;;;;;;5031445;28;20219;-73
2021/12/18 09:14:36;;;;;;;20.90;14.85;;;5.30;99.90;;;;;;5030027;28;20223;-72
2021/12/18 09:17:02;;;;;;;21.63;15.35;;;5.20;99.90;;;;;;5030315;28;20674;-71
2021/12/18 09:19:27;;;;;;;21.67;16.02;;;5.40;99.90;;;;;;5030549;28;20318;-72
2021/12/18 09:21:53;;;;;;;19.73;15.43;;;5.40;99.90;;;;;;5029520;28;20207;-73
2021/12/18 09:24:20;;;;;;;21.20;16.27;;;5.40;99.90;;;;;;5027151;28;20260;-72
2021/12/18 09:26:47;;;;;;;20.55;14.95;;;5.40;99.90;;;;;;5031098;28;20199;-73
2021/12/18 09:29:13;;;;;;;21.30;15.70;;;5.40;99.90;;;;;;5031626;28;20192;-73
2021/12/18 09:31:38;;;;;;;20.02;14.48;;;5.50;99.90;;;;;;5030452;28;20310;-73
2021/12/18 09:34:04;;;;;;;20.75;13.82;;;5.50;99.90;;;;;;5036346;28;20573;-72
2021/12/18 09:36:30;;;;;;;21.83;15.43;;;5.50;99.90;;;;;;5021793;28;20177;-74
2021/12/18 09:38:55;;;;;;;22.17;15.52;;;5.70;99.90;;;;;;5030916;28;20307;-74
2021/12/18 09:41:21;;;;;;;21.75;15.80;;;5.90;99.90;;;;;;5030717;28;20263;-74
2021/12/18 09:43:47;;;;;;;18.45;14.23;;;5.90;99.90;;;;;;5018746;28;20185;-73
2021/12/18 09:46:14;;;;;;;19.45;15.02;;;6.00;99.90;;;;;;5023746;28;20204;-73
2021/12/18 09:48:42;;;;;;;21.55;14.70;;;6.10;99.90;;;;;;5028127;28;20199;-74
2021/12/18 09:51:14;;;;;;;19.50;13.88;;;6.50;99.90;;;;;;5041964;28;20176;-73
2021/12/18 09:53:40;;;;;;;20.60;15.25;;;6.60;99.90;;;;;;5029043;28;20271;-73
2021/12/18 09:56:07;;;;;;;21.05;15.25;;;6.80;99.90;;;;;;5030904;28;20537;-74
2021/12/18 09:58:33;;;;;;;20.50;14.80;;;6.80;99.90;;;;;;5032455;28;20208;-73
2021/12/18 10:00:59;;;;;;;20.13;15.80;;;6.90;99.90;;;;;;5032406;28;20329;-72
2021/12/18 10:03:52;;;;;;;20.13;15.85;;;6.90;99.90;;;;;;5015429;28;20177;-73
2021/12/18 10:06:48;;;;;;;19.55;14.75;;;7.00;99.90;;;;;;5013576;28;20209;-73
2021/12/18 10:09:20;;;;;;;19.98;14.43;;;7.00;99.90;;;;;;5014442;28;20672;-74
2021/12/18 10:11:47;;;;;;;19.75;15.27;;;7.10;99.90;;;;;;5032860;28;20271;-74
2021/12/18 10:14:14;;;;;;;17.75;14.85;;;7.10;99.90;;;;;;5034290;28;20184;-73
2021/12/18 10:17:18;;;;;;;21.40;15.85;;;7.10;99.90;;;;;;5034552;28;20190;-73
2021/12/18 10:19:44;;;;;;;23.10;17.08;;;6.70;99.90;;;;;;5033400;28;20198;-74
2021/12/18 10:22:11;;;;;;;20.67;15.88;;;6.30;99.90;;;;;;5033664;28;20274;-73
2021/12/18 10:24:40;;;;;;;20.55;16.00;;;6.40;99.90;;;;;;5033503;28;20232;-74
2021/12/18 10:27:20;;;;;;;20.70;15.32;;;6.80;99.90;;;;;;5034582;28;20176;-74
2021/12/18 10:29:47;;;;;;;22.52;14.63;;;6.90;99.90;;;;;;5031196;28;20196;-74
2021/12/18 10:32:15;;;;;;;20.40;15.95;;;6.80;99.90;;;;;;5034066;28;20185;-74
2021/12/18 10:34:49;;;;;;;18.65;14.55;;;6.60;99.90;;;;;;5033712;28;20173;-73
2021/12/18 10:37:34;;;;;;;18.85;14.18;;;6.40;99.90;;;;;;5029696;28;20190;-73
2021/12/18 10:40:10;;;;;;;20.10;14.65;;;6.40;99.90;;;;;;5033849;28;20566;-71
2021/12/18 10:42:46;;;;;;;21.27;15.55;;;6.20;99.90;;;;;;5033860;28;20179;-72
2021/12/18 10:45:14;;;;;;;21.63;16.42;;;6.30;99.90;;;;;;5027365;28;20196;-71
2021/12/18 10:48:04;;;;;;;18.80;14.63;;;6.40;99.90;;;;;;5032229;28;20200;-73
2021/12/18 10:50:49;;;;;;;19.58;15.10;;;6.70;99.90;;;;;;5046219;28;20263;-72
2021/12/18 10:53:22;;;;;;;17.88;13.98;;;7.00;99.90;;;;;;5051696;28;20175;-71
2021/12/18 10:55:58;;;;;;;19.10;13.88;;;6.90;99.90;;;;;;5021584;28;20177;-72
2021/12/18 10:58:28;;;;;;;20.27;15.20;;;6.90;99.90;;;;;;5033412;28;20607;-72
2021/12/18 11:00:58;;;;;;;18.02;14.25;;;7.10;99.90;;;;;;5033107;28;20565;-72
2021/12/18 11:03:39;;;;;;;16.85;13.02;;;7.40;99.90;;;;;;5030670;28;20192;-73
2021/12/18 11:06:17;;;;;;;18.33;13.82;;;7.10;99.90;;;;;;5013692;28;20212;-72
2021/12/18 11:09:06;;;;;;;16.77;13.23;;;6.90;99.90;;;;;;5013895;28;20185;-71
2021/12/18 11:14:17;;;;;;;18.38;14.20;;;6.80;99.90;;;;;;5033699;28;20172;-72
2021/12/18 11:16:47;;;;;;;17.80;14.52;;;6.80;99.90;;;;;;5032845;28;20176;-71
2021/12/18 11:19:16;;;;;;;17.40;13.43;;;6.80;99.90;;;;;;5031755;28;20603;-72
2021/12/18 11:21:53;;;;;;;17.35;12.80;;;6.60;99.90;;;;;;5032066;28;20187;-72
2021/12/18 11:24:21;;;;;;;14.90;12.10;;;6.80;99.90;;;;;;5033006;28;20211;-70
2021/12/18 11:26:53;;;;;;;18.13;13.05;;;6.90;99.90;;;;;;5033677;28;20169;-72
2021/12/18 11:29:44;;;;;;;16.27;12.98;;;6.90;99.90;;;;;;5031893;28;20195;-72
2021/12/18 11:32:12;;;;;;;15.68;12.48;;;6.70;99.90;;;;;;5029400;28;20184;-72
2021/12/18 11:34:39;;;;;;;16.88;13.23;;;6.50;99.90;;;;;;5032038;28;20207;-73
2021/12/18 11:37:07;;;;;;;16.75;12.48;;;6.30;99.90;;;;;;5031902;28;20214;-73
2021/12/18 11:39:35;;;;;;;16.33;13.20;;;6.30;99.90;;;;;;5030991;28;20196;-73
2021/12/18 11:42:01;;;;;;;15.43;12.88;;;6.40;99.90;;;;;;5031622;28;20180;-72
2021/12/18 11:44:33;;;;;;;15.95;11.63;;;6.40;99.90;;;;;;5031927;28;20226;-71
2021/12/18 11:47:23;;;;;;;13.88;11.63;;;6.50;99.90;;;;;;5027465;28;20223;-72
2021/12/18 11:49:50;;;;;;;13.23;10.73;;;6.60;99.90;;;;;;5027609;28;20250;-72
2021/12/18 11:52:15;;;;;;;17.05;11.57;;;6.50;99.90;;;;;;5029603;28;20252;-72
2021/12/18 11:54:56;;;;;;;15.93;12.05;;;6.50;99.90;;;;;;5030368;28;20255;-72
2021/12/18 11:57:39;;;;;;;24.05;14.70;;;6.30;99.90;;;;;;5030575;28;20176;-72
2021/12/18 12:00:16;;;;;;;17.50;13.15;;;6.10;99.90;;;;;;5031492;28;20216;-73
2021/12/18 12:02:48;;;;;;;17.52;14.18;;;6.20;99.90;;;;;;5032679;28;20181;-73
2021/12/18 12:05:16;;;;;;;15.48;13.10;;;6.40;99.90;;;;;;5028281;28;20236;-74
2021/12/18 12:07:45;;;;;;;16.80;13.52;;;6.40;99.90;;;;;;5018414;28;20232;-73
2021/12/18 12:10:45;;;;;;;15.40;12.77;;;6.20;99.90;;;;;;5027135;28;20196;-72
2021/12/18 12:13:09;;;;;;;16.23;12.63;;;6.20;99.90;;;;;;5031066;28;20188;-72
2021/12/18 12:15:49;;;;;;;15.70;12.30;;;6.10;99.90;;;;;;5031223;28;20572;-71
2021/12/18 12:18:15;;;;;;;16.15;12.98;;;6.20;99.90;;;;;;5012595;28;20639;-72
2021/12/18 12:20:48;;;;;;;14.80;12.07;;;6.10;99.90;;;;;;5020492;28;20184;-72
2021/12/18 12:23:14;;;;;;;15.85;12.98;;;6.40;99.90;;;;;;5031479;28;20176;-72
2021/12/18 12:25:45;;;;;;;16.40;13.07;;;6.60;99.90;;;;;;5027818;28;20204;-72
2021/12/18 12:28:23;;;;;;;17.35;12.93;;;6.60;99.90;;;;;;5031403;28;20169;-72
2021/12/18 12:31:02;;;;;;;17.63;13.13;;;6.50;99.90;;;;;;5031149;28;20168;-71
2021/12/18 12:33:36;;;;;;;16.08;11.95;;;6.50;99.90;;;;;;5029894;28;20180;-72
2021/12/18 12:36:14;;;;;;;18.52;12.20;;;6.50;99.90;;;;;;5030698;28;20176;-72
2021/12/18 12:38:41;;;;;;;16.08;13.27;;;6.60;99.90;;;;;;5029735;28;20204;-71
2021/12/18 12:41:37;;;;;;;15.82;12.48;;;6.70;99.90;;;;;;5028127;28;20185;-70
2021/12/18 12:44:36;;;;;;;11.93;10.55;;;6.60;99.90;;;;;;5016015;28;20192;-71
2021/12/18 12:47:17;;;;;;;11.90;9.48;;;6.60;99.90;;;;;;5031496;28;20263;-71
2021/12/18 12:49:45;;;;;;;13.35;11.13;;;6.60;99.90;;;;;;5030841;28;20254;-72
2021/12/18 12:52:16;;;;;;;13.90;11.43;;;6.50;99.90;;;;;;5037506;28;20184;-71
2021/12/18 12:54:54;;;;;;;14.90;11.30;;;6.50;99.90;;;;;;5031076;28;20704;-71
2021/12/18 12:57:30;;;;;;;14.52;11.57;;;6.20;99.90;;;;;;5027452;28;20184;-71
2021/12/18 12:59:58;;;;;;;14.82;12.00;;;6.10;99.90;;;;;;5030535;28;20571;-72
2021/12/18 13:02:29;;;;;;;13.05;11.18;;;6.00;99.90;;;;;;5031266;28;20556;-71
2021/12/18 13:05:02;;;;;;;14.13;12.18;;;6.00;99.90;;;;;;5031170;28;20567;-72
2021/12/18 13:07:28;;;;;;;14.52;12.50;;;6.00;99.90;;;;;;5012496;28;20189;-71
2021/12/18 13:09:54;;;;;;;14.93;11.35;;;6.10;99.90;;;;;;5012192;28;20193;-71
2021/12/18 13:12:20;;;;;;;13.02;10.65;;;6.10;99.90;;;;;;5028125;28;20184;-72
2021/12/18 13:14:46;;;;;;;12.45;11.07;;;6.00;99.90;;;;;;5030757;28;20215;-71
2021/12/18 13:17:20;;;;;;;13.13;11.23;;;5.80;99.90;;;;;;5031256;28;20188;-70
2021/12/18 13:20:00;;;;;;;16.15;12.82;;;6.00;99.90;;;;;;5031111;28;20228;-71
2021/12/18 13:22:32;;;;;;;17.40;12.55;;;6.00;99.90;;;;;;5030456;28;20191;-70
2021/12/18 13:25:14;;;;;;;15.32;11.38;;;5.80;99.90;;;;;;5030462;28;20192;-71
2021/12/18 13:28:04;;;;;;;15.00;12.63;;;5.80;99.90;;;;;;5029397;28;20595;-73